Terminal Aerodrome Forecast
Issued by NWS

Home | Current Version | Previous Version | Text Only | Print | Product List | Glossary On
Versions: 1 2 3 4 5 6 7 8 9 10 11 12 13 14
000
FTUS42 KMHX 282345
TAFISO
TAF
KISO 282345Z 2900/2924 15005KT P6SM SCT250
     FM290800 VRB04KT 5SM BR VCSH SCT100
     FM291000 VRB03KT 3SM BR BKN005
     FM291200 VRB04KT 3SM BR BKN020
     FM291300 12005KT P6SM VCSH BKN050
      AMD LTD TO CLD VIS AND WIND=

USA.gov is the U.S. government's official web portal to all federal, state and local government web resources and services.